createdAt,value
2018-06-24T00:00:31.309Z,79.46
2018-06-24T00:01:36.381Z,79.82
2018-06-24T00:02:42.036Z,80.12
2018-06-24T00:03:46.866Z,79.91
2018-06-24T00:04:51.612Z,80.14
2018-06-24T00:05:58.130Z,79.87
2018-06-24T00:07:03.080Z,80.22
2018-06-24T00:08:09.406Z,80.29
2018-06-24T00:09:16.549Z,80.44
2018-06-24T00:10:21.472Z,80.22
2018-06-24T00:11:26.081Z,80.08
2018-06-24T00:12:30.732Z,80.26
2018-06-24T00:13:37.476Z,80.20
2018-06-24T00:14:42.503Z,80.27
2018-06-24T00:15:47.015Z,80.46
2018-06-24T00:16:51.528Z,80.67
2018-06-24T00:17:58.858Z,80.56
2018-06-24T00:19:03.501Z,80.92
2018-06-24T00:20:09.351Z,80.74
2018-06-24T00:21:13.889Z,80.49
2018-06-24T00:22:18.467Z,80.43
2018-06-24T00:23:23.849Z,80.75
2018-06-24T00:24:29.268Z,80.40
2018-06-24T00:25:34.807Z,80.86
2018-06-24T00:26:39.637Z,80.82
2018-06-24T00:27:45.653Z,80.52
2018-06-24T00:28:53.281Z,80.98
2018-06-24T00:29:58.484Z,80.76
2018-06-24T00:31:03.511Z,80.71
2018-06-24T00:32:08.865Z,81.12
2018-06-24T00:33:13.874Z,81.19
2018-06-24T00:34:18.610Z,81.21
2018-06-24T00:35:23.159Z,81.37
2018-06-24T00:36:27.743Z,81.67
2018-06-24T00:37:32.345Z,81.23
2018-06-24T00:38:37.630Z,81.12
2018-06-24T00:39:44.038Z,81.19
2018-06-24T00:40:49.585Z,81.34
2018-06-24T00:41:54.159Z,81.75
2018-06-24T00:42:58.713Z,81.89
2018-06-24T00:44:03.310Z,81.53
2018-06-24T00:45:07.825Z,81.56
2018-06-24T00:46:13.658Z,81.76
2018-06-24T00:47:18.191Z,81.36
2018-06-24T00:48:22.742Z,81.81
2018-06-24T00:49:27.332Z,81.86
2018-06-24T00:50:32.017Z,81.49
2018-06-24T00:51:37.553Z,81.70
2018-06-24T00:52:43.585Z,81.58
2018-06-24T00:53:48.126Z,81.59
2018-06-24T00:54:52.782Z,81.72
2018-06-24T00:55:57.470Z,81.75
2018-06-24T00:57:02.067Z,81.89
2018-06-24T00:58:06.705Z,81.88
2018-06-24T00:59:17.371Z,81.60
2018-06-24T01:00:22.922Z,81.57
2018-06-24T01:01:27.656Z,81.92
2018-06-24T01:02:32.309Z,81.92
2018-06-24T01:03:37.018Z,81.71
2018-06-24T01:04:41.645Z,81.99
2018-06-24T01:05:47.174Z,81.88
2018-06-24T01:06:51.861Z,82.31
2018-06-24T01:07:56.467Z,82.17
2018-06-24T01:09:02.067Z,82.24
2018-06-24T01:10:09.648Z,82.27
2018-06-24T01:11:14.459Z,82.46
2018-06-24T01:12:19.297Z,82.47
2018-06-24T01:13:23.840Z,82.44
2018-06-24T01:14:28.666Z,82.78
2018-06-24T01:15:33.350Z,82.60
2018-06-24T01:16:39.223Z,82.85
2018-06-24T01:17:43.882Z,82.74
2018-06-24T01:18:48.820Z,82.91
2018-06-24T01:19:58.129Z,82.99
2018-06-24T01:21:03.842Z,83.09
2018-06-24T01:22:08.458Z,83.23
2018-06-24T01:23:14.247Z,83.27
2018-06-24T01:24:18.888Z,83.34
2018-06-24T01:25:23.792Z,83.15
2018-06-24T01:26:28.280Z,83.23
2018-06-24T01:27:32.918Z,83.13
2018-06-24T01:28:41.345Z,83.21
2018-06-24T01:29:45.884Z,83.71
2018-06-24T01:30:51.256Z,83.34
2018-06-24T01:31:56.242Z,83.34
2018-06-24T01:33:00.749Z,83.48
2018-06-24T01:34:05.394Z,83.63
2018-06-24T01:35:10.021Z,83.40
2018-06-24T01:36:14.606Z,83.68
2018-06-24T01:37:19.176Z,83.60
2018-06-24T01:38:24.116Z,83.52
2018-06-24T01:39:28.726Z,83.75
2018-06-24T01:40:34.968Z,83.90
2018-06-24T01:41:39.660Z,83.96
2018-06-24T01:42:44.325Z,83.78
2018-06-24T01:43:50.067Z,84.01
2018-06-24T01:44:54.975Z,84.02
2018-06-24T01:45:59.628Z,83.50
2018-06-24T01:47:05.211Z,84.19
2018-06-24T01:48:10.332Z,84.19
2018-06-24T01:49:14.970Z,83.93
2018-06-24T01:50:20.280Z,84.13
2018-06-24T01:51:25.517Z,83.89
2018-06-24T01:52:30.174Z,83.70
2018-06-24T01:53:34.788Z,83.82
2018-06-24T01:54:40.274Z,83.80
2018-06-24T01:55:45.528Z,83.99
2018-06-24T01:56:53.177Z,83.96
2018-06-24T01:57:58.890Z,84.28
2018-06-24T01:59:04.369Z,84.42
2018-06-24T02:00:08.961Z,84.16
2018-06-24T02:01:13.571Z,84.34
2018-06-24T02:02:18.198Z,84.58
2018-06-24T02:03:22.840Z,83.85
2018-06-24T02:04:27.746Z,84.30
2018-06-24T02:05:32.368Z,84.31
2018-06-24T02:06:37.015Z,84.63
2018-06-24T02:07:41.609Z,84.58
2018-06-24T02:08:46.223Z,84.27
2018-06-24T02:09:50.850Z,84.27
2018-06-24T02:10:55.767Z,84.62
2018-06-24T02:12:00.343Z,84.30
2018-06-24T02:13:04.970Z,84.67
2018-06-24T02:14:09.638Z,84.40
2018-06-24T02:15:14.220Z,84.50
2018-06-24T02:16:18.828Z,84.59
2018-06-24T02:17:32.100Z,84.35
2018-06-24T02:18:36.721Z,84.56
2018-06-24T02:19:41.303Z,84.35
2018-06-24T02:20:45.916Z,84.26
2018-06-24T02:21:50.484Z,84.35
2018-06-24T02:22:55.080Z,84.63
2018-06-24T02:24:00.018Z,84.65
2018-06-24T02:25:04.634Z,84.50
2018-06-24T02:26:09.399Z,84.67
2018-06-24T02:27:14.022Z,84.42
2018-06-24T02:28:18.623Z,85.07
2018-06-24T02:29:23.532Z,84.64
2018-06-24T02:30:28.400Z,84.69
2018-06-24T02:31:33.017Z,84.39
2018-06-24T02:32:37.676Z,84.76
2018-06-24T02:33:42.275Z,84.70
2018-06-24T02:34:46.869Z,85.02
2018-06-24T02:35:51.518Z,84.92
2018-06-24T02:36:56.975Z,85.05
2018-06-24T02:38:01.579Z,85.00
2018-06-24T02:39:07.696Z,84.97
2018-06-24T02:40:12.319Z,84.93
2018-06-24T02:41:16.987Z,84.93
2018-06-24T02:42:21.665Z,85.32
2018-06-24T02:43:26.607Z,84.97
2018-06-24T02:44:31.187Z,85.36
2018-06-24T02:45:35.822Z,85.04
2018-06-24T02:46:40.432Z,85.36
2018-06-24T02:47:44.996Z,85.05
2018-06-24T02:48:49.825Z,85.43
2018-06-24T02:49:54.773Z,85.40
2018-06-24T02:50:59.396Z,85.48
2018-06-24T02:52:04.030Z,85.29
2018-06-24T02:53:09.565Z,85.21
2018-06-24T02:54:14.955Z,85.45
2018-06-24T02:55:20.193Z,85.13
2018-06-24T02:56:25.726Z,85.52
2018-06-24T02:57:31.517Z,85.23
2018-06-24T02:58:37.882Z,85.10
2018-06-24T02:59:42.497Z,85.79
2018-06-24T03:00:51.509Z,85.76
2018-06-24T03:01:56.905Z,85.62
2018-06-24T03:03:01.801Z,85.58
2018-06-24T03:04:06.406Z,85.48
2018-06-24T03:05:11.026Z,85.95
2018-06-24T03:06:15.628Z,86.05
2018-06-24T03:07:20.278Z,86.36
2018-06-24T03:08:25.496Z,85.67
2018-06-24T03:09:30.401Z,85.75
2018-06-24T03:10:35.049Z,86.02
2018-06-24T03:11:40.358Z,86.01
2018-06-24T03:12:44.984Z,86.30
2018-06-24T03:13:49.801Z,86.13
2018-06-24T03:14:54.375Z,86.42
2018-06-24T03:15:59.271Z,86.49
2018-06-24T03:17:03.866Z,86.03
2018-06-24T03:18:08.437Z,86.29
2018-06-24T03:19:13.065Z,85.79
2018-06-24T03:20:17.659Z,86.19
2018-06-24T03:21:22.253Z,86.21
2018-06-24T03:22:26.861Z,85.96
2018-06-24T03:23:31.425Z,85.96
2018-06-24T03:24:35.951Z,86.01
2018-06-24T03:25:40.503Z,86.18
2018-06-24T03:26:44.976Z,86.01
2018-06-24T03:27:49.448Z,85.92
2018-06-24T03:28:54.239Z,86.50
2018-06-24T03:29:58.724Z,86.23
2018-06-24T03:31:03.243Z,86.34
2018-06-24T03:32:07.699Z,85.72
2018-06-24T03:33:12.211Z,86.17
2018-06-24T03:34:17.214Z,86.13
2018-06-24T03:35:22.004Z,85.92
2018-06-24T03:36:26.516Z,86.14
2018-06-24T03:37:31.012Z,86.00
2018-06-24T03:38:35.548Z,86.03
2018-06-24T03:39:40.062Z,85.37
2018-06-24T03:40:44.527Z,85.73
2018-06-24T03:41:49.376Z,85.98
2018-06-24T03:42:53.920Z,85.57
2018-06-24T03:43:58.405Z,85.39
2018-06-24T03:45:02.890Z,85.39
2018-06-24T03:46:07.395Z,85.44
2018-06-24T03:47:11.853Z,85.38
2018-06-24T03:48:16.666Z,85.21
2018-06-24T03:49:21.164Z,85.07
2018-06-24T03:50:25.638Z,85.56
2018-06-24T03:51:30.095Z,85.06
2018-06-24T03:52:34.619Z,85.20
2018-06-24T03:53:39.129Z,85.28
2018-06-24T03:54:44.016Z,85.50
2018-06-24T03:55:48.624Z,85.42
2018-06-24T03:56:53.235Z,85.35
2018-06-24T03:57:57.872Z,85.34
2018-06-24T03:59:02.495Z,85.21
2018-06-24T04:00:07.587Z,85.01
2018-06-24T04:01:13.378Z,85.53
2018-06-24T04:02:18.043Z,85.28
2018-06-24T04:03:22.716Z,85.16
2018-06-24T04:04:30.330Z,85.15
2018-06-24T04:05:34.963Z,85.10
2018-06-24T04:06:39.577Z,84.99
2018-06-24T04:07:44.500Z,85.15
2018-06-24T04:08:49.085Z,84.94
2018-06-24T04:09:53.695Z,84.53
2018-06-24T04:10:58.277Z,84.88
2018-06-24T04:12:02.922Z,84.88
2018-06-24T04:13:07.519Z,84.78
2018-06-24T04:14:12.936Z,84.54
2018-06-24T04:15:17.556Z,84.85
2018-06-24T04:16:22.178Z,84.47
2018-06-24T04:17:26.790Z,84.68
2018-06-24T04:18:41.760Z,84.46
2018-06-24T04:19:46.337Z,84.44
2018-06-24T04:20:51.207Z,84.53
2018-06-24T04:21:56.433Z,84.44
2018-06-24T04:23:01.012Z,84.15
2018-06-24T04:24:05.668Z,84.10
2018-06-24T04:25:10.310Z,84.38
2018-06-24T04:26:14.908Z,84.17
2018-06-24T04:27:19.931Z,83.89
2018-06-24T04:28:24.496Z,84.21
2018-06-24T04:29:29.073Z,83.97
2018-06-24T04:30:33.656Z,84.16
2018-06-24T04:31:38.269Z,84.09
2018-06-24T04:32:42.959Z,84.32
2018-06-24T04:33:48.065Z,83.67
2018-06-24T04:34:52.683Z,83.99
2018-06-24T04:35:57.312Z,84.13
2018-06-24T04:37:01.983Z,83.98
2018-06-24T04:38:06.585Z,83.90
2018-06-24T04:39:11.962Z,83.77
2018-06-24T04:40:17.660Z,83.62
2018-06-24T04:41:22.427Z,83.99
2018-06-24T04:42:27.077Z,83.80
2018-06-24T04:43:31.757Z,83.79
2018-06-24T04:44:36.615Z,84.03
2018-06-24T04:45:42.377Z,83.99
2018-06-24T04:46:47.508Z,83.56
2018-06-24T04:47:56.181Z,83.68
2018-06-24T04:49:00.873Z,83.55
2018-06-24T04:50:05.502Z,83.25
2018-06-24T04:51:10.121Z,83.55
2018-06-24T04:52:14.774Z,83.47
2018-06-24T04:53:19.771Z,83.86
2018-06-24T04:54:24.352Z,84.04
2018-06-24T04:55:29.095Z,84.38
2018-06-24T04:56:33.578Z,84.63
2018-06-24T04:57:38.096Z,85.19
2018-06-24T04:58:42.615Z,84.97
2018-06-24T04:59:47.423Z,85.01
2018-06-24T05:00:52.032Z,84.99
2018-06-24T05:01:56.611Z,84.97
2018-06-24T05:03:01.485Z,85.12
2018-06-24T05:04:06.152Z,85.04
2018-06-24T05:05:10.814Z,85.01
2018-06-24T05:06:15.744Z,84.83
2018-06-24T05:07:20.352Z,85.28
2018-06-24T05:08:25.026Z,85.02
2018-06-24T05:09:29.544Z,84.85
2018-06-24T05:10:34.088Z,85.03
2018-06-24T05:11:38.632Z,84.68
2018-06-24T05:12:43.408Z,84.63
2018-06-24T05:13:48.009Z,84.72
2018-06-24T05:14:53.125Z,84.52
2018-06-24T05:15:57.700Z,84.36
2018-06-24T05:17:02.312Z,84.40
2018-06-24T05:18:07.008Z,84.21
2018-06-24T05:19:11.938Z,84.12
2018-06-24T05:20:16.602Z,83.80
2018-06-24T05:21:22.084Z,83.90
2018-06-24T05:22:26.720Z,83.80
2018-06-24T05:23:31.349Z,83.62
2018-06-24T05:24:35.928Z,83.68
2018-06-24T05:25:42.256Z,83.79
2018-06-24T05:26:46.880Z,83.75
2018-06-24T05:27:51.572Z,83.50
2018-06-24T05:28:56.204Z,83.70
2018-06-24T05:30:01.991Z,83.93
2018-06-24T05:31:09.527Z,83.33
2018-06-24T05:32:18.421Z,83.42
2018-06-24T05:33:24.821Z,83.60
2018-06-24T05:34:29.459Z,83.58
2018-06-24T05:35:34.092Z,83.37
2018-06-24T05:36:38.890Z,83.53
2018-06-24T05:37:43.558Z,83.48
2018-06-24T05:38:52.613Z,83.11
2018-06-24T05:39:57.318Z,83.14
2018-06-24T05:41:01.960Z,83.34
2018-06-24T05:42:06.635Z,82.92
2018-06-24T05:43:11.310Z,83.29
2018-06-24T05:44:15.963Z,82.79
2018-06-24T05:45:20.589Z,82.81
2018-06-24T05:46:25.172Z,83.22
2018-06-24T05:47:29.763Z,82.88
2018-06-24T05:48:34.409Z,82.81
2018-06-24T05:49:38.999Z,82.59
2018-06-24T05:50:43.910Z,82.94
2018-06-24T05:51:49.035Z,82.56
2018-06-24T05:52:53.635Z,82.74
2018-06-24T05:53:58.450Z,82.47
2018-06-24T05:55:03.210Z,82.82
2018-06-24T05:56:07.812Z,82.69
2018-06-24T05:57:12.694Z,83.18
2018-06-24T05:58:17.420Z,83.11
2018-06-24T05:59:22.017Z,83.27
2018-06-24T06:00:26.717Z,83.51
2018-06-24T06:01:31.405Z,83.42
2018-06-24T06:02:36.023Z,83.10
2018-06-24T06:03:40.909Z,83.32
2018-06-24T06:04:45.512Z,83.56
2018-06-24T06:05:50.122Z,83.20
2018-06-24T06:06:54.729Z,83.16
2018-06-24T06:08:00.372Z,82.94
2018-06-24T06:09:06.818Z,82.81
2018-06-24T06:10:11.751Z,82.79
2018-06-24T06:11:16.524Z,82.93
2018-06-24T06:12:21.142Z,82.42
2018-06-24T06:13:25.722Z,82.30
2018-06-24T06:14:30.343Z,82.40
2018-06-24T06:15:35.152Z,82.61
2018-06-24T06:16:40.094Z,82.44
2018-06-24T06:17:45.203Z,82.74
2018-06-24T06:18:49.694Z,82.48
2018-06-24T06:19:54.232Z,82.31
2018-06-24T06:20:58.756Z,82.18
2018-06-24T06:22:03.338Z,82.20
2018-06-24T06:23:08.153Z,82.31
2018-06-24T06:24:12.885Z,82.28
2018-06-24T06:25:17.434Z,82.39
2018-06-24T06:26:22.221Z,82.42
2018-06-24T06:27:26.842Z,82.46
2018-06-24T06:28:31.421Z,82.60
2018-06-24T06:29:36.313Z,82.17
2018-06-24T06:30:40.952Z,81.98
2018-06-24T06:31:45.595Z,82.01
2018-06-24T06:32:50.232Z,81.70
2018-06-24T06:33:54.841Z,81.65
2018-06-24T06:35:01.667Z,81.70
2018-06-24T06:36:09.775Z,81.58
2018-06-24T06:37:14.373Z,81.73
2018-06-24T06:38:19.273Z,81.93
2018-06-24T06:39:24.701Z,82.01
2018-06-24T06:40:29.358Z,81.81
2018-06-24T06:41:34.718Z,81.64
2018-06-24T06:42:41.722Z,81.61
2018-06-24T06:43:46.333Z,81.96
2018-06-24T06:44:51.800Z,82.19
2018-06-24T06:45:56.348Z,81.97
2018-06-24T06:47:00.951Z,81.64
2018-06-24T06:48:05.596Z,81.72
2018-06-24T06:49:10.504Z,81.95
2018-06-24T06:50:18.791Z,80.95
2018-06-24T06:51:23.386Z,80.83
2018-06-24T06:52:30.757Z,81.10
2018-06-24T06:53:35.367Z,80.92
2018-06-24T06:54:40.076Z,80.60
2018-06-24T06:55:45.021Z,80.26
2018-06-24T06:56:49.633Z,80.24
2018-06-24T06:57:54.326Z,80.17
2018-06-24T06:59:05.527Z,79.91
2018-06-24T07:00:11.152Z,79.83
2018-06-24T07:01:15.825Z,79.97
2018-06-24T07:02:20.710Z,79.41
2018-06-24T07:03:26.303Z,79.66
2018-06-24T07:04:30.974Z,79.06
2018-06-24T07:05:35.581Z,78.88
2018-06-24T07:06:40.217Z,79.09
2018-06-24T07:07:46.686Z,78.73
2018-06-24T07:08:51.675Z,78.49
2018-06-24T07:09:56.276Z,78.61
2018-06-24T07:11:01.497Z,78.84
2018-06-24T07:12:06.131Z,78.74
2018-06-24T07:13:10.818Z,78.48
2018-06-24T07:14:15.457Z,78.12
2018-06-24T07:15:20.348Z,77.77
2018-06-24T07:16:25.256Z,77.56
2018-06-24T07:17:29.785Z,77.95
2018-06-24T07:18:34.260Z,77.85
2018-06-24T07:19:40.352Z,78.14
2018-06-24T07:20:46.721Z,78.37
2018-06-24T07:21:51.276Z,78.88
2018-06-24T07:22:56.000Z,78.40
2018-06-24T07:24:01.489Z,78.25
2018-06-24T07:25:07.022Z,78.67
2018-06-24T07:26:11.536Z,78.87
2018-06-24T07:27:16.392Z,77.75
2018-06-24T07:28:20.895Z,78.11
2018-06-24T07:29:25.398Z,77.58
2018-06-24T07:30:29.887Z,78.03
2018-06-24T07:31:34.687Z,77.93
2018-06-24T07:32:41.736Z,78.33
2018-06-24T07:33:48.861Z,77.94
2018-06-24T07:34:55.361Z,77.23
2018-06-24T07:36:04.093Z,76.97
2018-06-24T07:37:13.341Z,76.59
2018-06-24T07:38:21.822Z,76.69
2018-06-24T07:39:27.552Z,76.95
2018-06-24T07:40:34.342Z,76.75
2018-06-24T07:41:41.982Z,76.29
2018-06-24T07:42:49.832Z,76.52
2018-06-24T07:43:58.153Z,76.10
2018-06-24T07:45:03.469Z,75.35
2018-06-24T07:46:09.384Z,75.43
2018-06-24T07:47:13.920Z,75.57
2018-06-24T07:48:19.754Z,75.46
2018-06-24T07:49:28.554Z,75.09
2018-06-24T07:50:39.981Z,74.56
2018-06-24T07:51:49.026Z,74.13
2018-06-24T07:52:54.353Z,73.54
2018-06-24T07:54:02.151Z,73.08
2018-06-24T07:56:43.915Z,72.03
2018-06-24T07:57:49.225Z,71.13
2018-06-24T07:58:54.625Z,71.38
2018-06-24T07:59:59.141Z,71.46
2018-06-24T08:01:04.630Z,70.90
2018-06-24T08:02:10.377Z,70.50
2018-06-24T08:03:16.308Z,70.38
2018-06-24T08:04:22.060Z,69.96
2018-06-24T08:05:26.689Z,69.83
2018-06-24T08:06:31.911Z,69.74
2018-06-24T08:07:38.334Z,69.63
2018-06-24T08:08:43.062Z,69.48
2018-06-24T08:09:50.705Z,69.06
2018-06-24T08:11:00.400Z,68.83
2018-06-24T08:12:10.010Z,69.09
2018-06-24T08:13:16.320Z,68.55
2018-06-24T08:14:21.801Z,68.87
2018-06-24T08:15:27.563Z,68.46
2018-06-24T08:16:33.775Z,68.30
2018-06-24T08:17:41.004Z,67.91
2018-06-24T08:18:46.611Z,67.29
2018-06-24T08:19:53.860Z,67.15
2018-06-24T08:21:00.750Z,66.85
2018-06-24T08:22:06.982Z,67.15
2018-06-24T08:23:16.975Z,67.86
2018-06-24T08:24:22.237Z,67.81
2018-06-24T08:25:28.351Z,67.51
2018-06-24T08:26:33.442Z,67.88
2018-06-24T08:27:38.162Z,68.24
2018-06-24T08:28:42.841Z,68.33
2018-06-24T08:29:47.771Z,67.79
2018-06-24T08:30:52.391Z,67.62
2018-06-24T08:31:57.034Z,67.29
2018-06-24T08:33:02.085Z,67.19
2018-06-24T08:34:08.097Z,67.44
2018-06-24T08:35:13.714Z,67.86
2018-06-24T08:36:19.956Z,67.23
2018-06-24T08:37:24.566Z,67.82
2018-06-24T08:38:29.785Z,100.00
2018-06-24T08:39:34.506Z,67.57
2018-06-24T08:40:40.434Z,67.30
2018-06-24T08:41:45.092Z,67.22
2018-06-24T08:42:51.137Z,67.07
2018-06-24T08:43:57.433Z,66.19
2018-06-24T08:45:02.486Z,65.62
2018-06-24T08:46:11.570Z,65.83
2018-06-24T08:47:17.349Z,66.32
2018-06-24T08:48:21.993Z,65.37
2018-06-24T08:49:27.792Z,65.70
2018-06-24T08:50:35.314Z,65.83
2018-06-24T08:51:40.610Z,65.22
2018-06-24T08:52:45.107Z,65.44
2018-06-24T08:53:51.190Z,65.03
2018-06-24T08:54:56.325Z,64.77
2018-06-24T08:56:01.013Z,64.75
2018-06-24T08:57:05.568Z,64.68
2018-06-24T08:58:12.008Z,64.68
2018-06-24T08:59:19.308Z,64.22
2018-06-24T09:00:28.259Z,64.11
2018-06-24T09:01:33.755Z,63.85
2018-06-24T09:02:38.534Z,64.40
2018-06-24T09:03:51.066Z,64.62
2018-06-24T09:04:55.754Z,64.39
2018-06-24T09:06:02.062Z,63.78
2018-06-24T09:07:06.976Z,63.43
2018-06-24T09:08:11.783Z,63.03
2018-06-24T09:09:17.313Z,62.74
2018-06-24T09:10:22.653Z,62.65
2018-06-24T09:11:28.637Z,62.96
2018-06-24T09:12:34.607Z,62.63
2018-06-24T09:13:42.117Z,62.78
2018-06-24T09:14:50.723Z,62.56
2018-06-24T09:15:55.428Z,62.02
2018-06-24T09:17:00.559Z,62.18
2018-06-24T09:18:07.640Z,61.71
2018-06-24T09:19:12.540Z,61.36
2018-06-24T09:20:20.205Z,61.62
2018-06-24T09:21:25.640Z,61.67
2018-06-24T09:22:34.925Z,61.55
2018-06-24T09:23:40.626Z,61.37
2018-06-24T09:24:48.788Z,61.33
2018-06-24T09:25:54.346Z,60.89
2018-06-24T09:26:58.888Z,60.78
2018-06-24T09:28:03.716Z,61.44
2018-06-24T09:29:09.305Z,62.18
2018-06-24T09:30:13.811Z,62.43
2018-06-24T09:31:20.405Z,63.32
2018-06-24T09:32:27.110Z,63.46
2018-06-24T09:33:39.423Z,63.01
2018-06-24T09:34:48.567Z,63.36
2018-06-24T09:35:55.373Z,62.91
2018-06-24T09:37:03.159Z,62.92
2018-06-24T09:38:09.416Z,62.74
2018-06-24T09:39:14.103Z,62.93
2018-06-24T09:40:20.476Z,62.46
2018-06-24T09:41:26.539Z,62.69
2018-06-24T09:42:42.678Z,62.77
2018-06-24T09:43:53.388Z,62.75
2018-06-24T09:45:02.366Z,62.38
2018-06-24T09:46:11.515Z,62.09
2018-06-24T09:47:18.344Z,62.09
2018-06-24T09:48:26.339Z,61.69
2018-06-24T09:49:32.549Z,61.45
2018-06-24T09:50:42.802Z,61.58
2018-06-24T09:51:48.527Z,61.34
2018-06-24T09:52:58.888Z,61.50
2018-06-24T09:54:05.434Z,61.40
2018-06-24T09:55:11.020Z,61.07
2018-06-24T09:56:16.054Z,60.64
2018-06-24T09:57:21.949Z,60.72
2018-06-24T09:58:28.811Z,60.45
2018-06-24T09:59:33.525Z,60.26
2018-06-24T10:00:39.076Z,60.18
2018-06-24T10:01:45.841Z,59.67
2018-06-24T10:02:50.846Z,59.84
2018-06-24T10:03:55.957Z,59.22
2018-06-24T10:05:00.447Z,59.39
2018-06-24T10:06:05.344Z,59.35
2018-06-24T10:07:09.887Z,59.38
2018-06-24T10:08:17.506Z,58.65
2018-06-24T10:09:23.171Z,59.30
2018-06-24T10:10:27.878Z,59.39
2018-06-24T10:11:32.926Z,60.38
2018-06-24T10:12:38.616Z,60.90
2018-06-24T10:13:44.229Z,60.99
2018-06-24T10:14:48.880Z,61.26
2018-06-24T10:15:54.789Z,61.14
2018-06-24T10:17:00.551Z,61.21
2018-06-24T10:18:07.284Z,61.25
2018-06-24T10:19:16.308Z,61.04
2018-06-24T10:20:23.186Z,61.19
2018-06-24T10:21:30.324Z,60.56
2018-06-24T10:22:40.160Z,60.13
2018-06-24T10:23:46.670Z,59.92
2018-06-24T10:24:55.330Z,59.52
2018-06-24T10:27:17.126Z,59.02
2018-06-24T10:28:23.380Z,58.44
2018-06-24T10:29:31.686Z,58.49
2018-06-24T10:30:36.206Z,57.87
2018-06-24T10:31:40.713Z,57.57
2018-06-24T10:32:45.263Z,57.74
2018-06-24T10:33:52.793Z,56.82
2018-06-24T10:34:59.810Z,56.74
2018-06-24T10:36:09.292Z,56.85
2018-06-24T10:37:14.952Z,56.40
2018-06-24T10:38:20.721Z,56.40
2018-06-24T10:39:28.296Z,56.00
2018-06-24T10:40:32.939Z,57.00
2018-06-24T10:41:37.948Z,56.68
2018-06-24T10:42:43.164Z,57.11
2018-06-24T10:43:51.639Z,56.36
2018-06-24T10:45:02.780Z,57.25
2018-06-24T10:46:15.127Z,57.08
2018-06-24T10:47:24.416Z,57.16
2018-06-24T10:48:31.217Z,56.42
2018-06-24T10:49:35.844Z,57.25
2018-06-24T10:50:41.647Z,57.40
2018-06-24T10:51:50.188Z,57.51
2018-06-24T10:52:57.283Z,57.52
2018-06-24T10:54:04.911Z,56.92
2018-06-24T10:56:21.582Z,56.60
2018-06-24T10:57:29.014Z,56.64
2018-06-24T10:58:34.610Z,56.76
2018-06-24T10:59:43.456Z,56.94
2018-06-24T11:00:50.301Z,56.65
2018-06-24T11:01:59.966Z,56.32
2018-06-24T11:03:07.686Z,56.63
2018-06-24T11:04:15.294Z,56.46
2018-06-24T11:05:22.693Z,56.76
2018-06-24T11:06:30.024Z,56.88
2018-06-24T11:07:36.217Z,56.44
2018-06-24T11:08:42.924Z,56.27
2018-06-24T11:09:47.774Z,56.27
2018-06-24T11:10:57.140Z,56.19
2018-06-24T11:12:04.971Z,56.49
2018-06-24T11:13:09.625Z,56.32
2018-06-24T11:14:14.274Z,56.53
2018-06-24T11:15:19.560Z,56.58
2018-06-24T11:16:24.445Z,55.82
2018-06-24T11:17:29.177Z,56.06
2018-06-24T11:18:40.231Z,56.23
2018-06-24T11:19:47.360Z,56.02
2018-06-24T11:20:58.420Z,56.28
2018-06-24T11:22:04.260Z,55.85
2018-06-24T11:23:09.513Z,56.16
2018-06-24T11:24:14.718Z,56.21
2018-06-24T11:25:20.286Z,56.16
2018-06-24T11:26:25.335Z,55.84
2018-06-24T11:27:32.530Z,55.69
2018-06-24T11:28:40.592Z,55.80
2018-06-24T11:29:45.556Z,55.74
2018-06-24T11:30:50.519Z,55.27
2018-06-24T11:31:57.442Z,55.35
2018-06-24T11:33:01.989Z,55.27
2018-06-24T11:34:06.961Z,55.01
2018-06-24T11:35:12.616Z,54.95
2018-06-24T11:36:19.048Z,54.80
2018-06-24T11:37:23.640Z,53.80
2018-06-24T11:38:28.174Z,53.99
2018-06-24T11:39:32.814Z,53.71
2018-06-24T11:40:38.582Z,54.10
2018-06-24T11:41:43.333Z,54.21
2018-06-24T11:42:48.767Z,54.13
2018-06-24T11:43:53.335Z,53.98
2018-06-24T11:44:57.827Z,53.85
2018-06-24T11:46:02.398Z,54.12
2018-06-24T11:47:07.270Z,53.85
2018-06-24T11:48:12.784Z,53.67
2018-06-24T11:49:17.518Z,52.95
2018-06-24T11:50:22.325Z,53.23
2018-06-24T11:51:27.509Z,52.75
2018-06-24T11:52:32.141Z,53.07
2018-06-24T11:53:37.280Z,53.13
2018-06-24T11:54:42.829Z,52.85
2018-06-24T11:55:50.090Z,52.73
2018-06-24T11:56:57.612Z,52.75
2018-06-24T11:58:02.162Z,52.79
2018-06-24T11:59:06.782Z,52.30
2018-06-24T12:00:13.078Z,52.33
2018-06-24T12:01:17.606Z,51.82
2018-06-24T12:02:23.445Z,51.33
2018-06-24T12:03:30.569Z,50.57
2018-06-24T12:04:35.252Z,50.90
2018-06-24T12:05:40.355Z,51.74
2018-06-24T12:06:48.505Z,52.36
2018-06-24T12:07:53.427Z,52.26
2018-06-24T12:08:59.480Z,52.08
2018-06-24T12:10:06.402Z,51.21
2018-06-24T12:11:12.317Z,51.94
2018-06-24T12:12:19.624Z,50.84
2018-06-24T12:13:25.647Z,50.29
2018-06-24T12:14:33.101Z,50.29
2018-06-24T12:15:39.460Z,50.43
2018-06-24T12:16:44.864Z,50.09
2018-06-24T12:17:50.817Z,50.62
2018-06-24T12:18:55.653Z,50.54
2018-06-24T12:20:01.701Z,50.52
2018-06-24T12:21:06.363Z,49.87
2018-06-24T12:22:10.985Z,50.34
2018-06-24T12:23:15.652Z,50.43
2018-06-24T12:24:20.568Z,49.95
2018-06-24T12:25:27.715Z,49.92
2018-06-24T12:26:33.676Z,50.12
2018-06-24T12:27:40.315Z,50.17
2018-06-24T12:28:48.952Z,50.18
2018-06-24T12:29:53.781Z,49.73
2018-06-24T12:30:59.645Z,49.66
2018-06-24T12:32:07.089Z,50.16
2018-06-24T12:33:13.649Z,50.40
2018-06-24T12:34:20.500Z,50.07
2018-06-24T12:35:25.118Z,51.11
2018-06-24T12:36:39.624Z,51.14
2018-06-24T12:37:46.121Z,50.87
2018-06-24T12:38:53.266Z,50.42
2018-06-24T12:39:59.108Z,51.21
2018-06-24T12:41:06.056Z,50.82
2018-06-24T12:42:12.066Z,51.21
2018-06-24T12:43:19.509Z,50.29
2018-06-24T12:44:25.668Z,49.88
2018-06-24T12:51:04.261Z,49.96
2018-06-24T12:52:09.811Z,49.71
2018-06-24T12:53:23.227Z,49.81
2018-06-24T12:54:27.898Z,49.46
2018-06-24T12:55:32.485Z,49.31
2018-06-24T12:56:54.036Z,49.46
2018-06-24T12:57:59.356Z,49.21
2018-06-24T12:59:07.908Z,49.23
2018-06-24T13:00:13.264Z,49.92
2018-06-24T13:01:22.386Z,49.96
2018-06-24T13:02:29.475Z,49.92
2018-06-24T13:03:36.836Z,50.01
2018-06-24T13:04:42.309Z,50.39
2018-06-24T13:05:51.165Z,50.44
2018-06-24T13:06:56.842Z,50.53
2018-06-24T13:08:02.872Z,50.68
2018-06-24T13:09:11.638Z,50.29
2018-06-24T13:10:16.753Z,50.06
2018-06-24T13:11:23.028Z,49.79
2018-06-24T13:12:31.314Z,50.01
2018-06-24T13:13:37.007Z,49.60
2018-06-24T13:14:46.510Z,50.04
2018-06-24T13:15:51.850Z,49.37
2018-06-24T13:16:59.807Z,49.49
2018-06-24T13:18:04.955Z,49.66
2018-06-24T13:19:10.043Z,49.84
2018-06-24T13:20:14.599Z,49.98
2018-06-24T13:21:19.625Z,49.92
2018-06-24T13:22:28.796Z,50.30
2018-06-24T13:23:35.715Z,49.82
2018-06-24T13:24:40.914Z,50.07
2018-06-24T13:25:46.011Z,50.25
2018-06-24T13:26:52.318Z,50.15
2018-06-24T13:27:59.817Z,50.12
2018-06-24T13:29:06.529Z,49.61
2018-06-24T13:30:12.346Z,49.93
2018-06-24T13:31:17.130Z,50.10
2018-06-24T13:32:23.296Z,50.44
2018-06-24T13:33:28.793Z,50.35
2018-06-24T13:34:34.276Z,50.44
2018-06-24T13:35:41.346Z,50.54
2018-06-24T13:36:47.155Z,50.55
2018-06-24T13:37:56.924Z,50.75
2018-06-24T13:39:03.084Z,50.83
2018-06-24T13:40:08.495Z,50.59
2018-06-24T13:41:15.075Z,50.56
2018-06-24T13:42:19.988Z,50.63
2018-06-24T13:43:24.707Z,50.48
2018-06-24T13:44:35.633Z,50.25
2018-06-24T13:45:44.170Z,49.94
2018-06-24T13:46:49.607Z,50.12
2018-06-24T13:47:54.413Z,49.80
2018-06-24T13:49:01.300Z,49.63
2018-06-24T13:50:09.827Z,49.92
2018-06-24T13:51:16.261Z,49.86
2018-06-24T13:52:38.437Z,49.80
2018-06-24T13:53:51.224Z,49.88
2018-06-24T13:54:59.672Z,49.21
2018-06-24T13:56:06.103Z,49.02
2018-06-24T13:57:12.588Z,48.62
2018-06-24T13:58:18.725Z,48.79
2018-06-24T13:59:25.084Z,48.94
2018-06-24T14:00:29.996Z,48.89
2018-06-24T14:01:35.827Z,49.18
2018-06-24T14:02:41.373Z,49.31
2018-06-24T14:03:46.406Z,49.60
2018-06-24T14:04:53.055Z,49.30
2018-06-24T14:05:57.759Z,49.40
2018-06-24T14:07:03.663Z,49.93
2018-06-24T14:08:08.280Z,50.07
2018-06-24T14:09:14.652Z,50.51
2018-06-24T14:10:22.657Z,50.63
2018-06-24T14:11:29.381Z,50.12
2018-06-24T14:12:38.503Z,50.46
2018-06-24T14:13:43.134Z,50.25
2018-06-24T14:14:48.692Z,50.49
2018-06-24T14:15:54.825Z,50.92